CYEGCYPR

Guest
Details From CYEG - Edmonton Intl
To CYPR - Prince Rupert
Flight Number -
Tags Generated
Created
Modified
Stats Distance 600 nm / 1,112 km
Max Altitude 0 ft / 0 m
Waypoints 4
Social Downloads 1
Likes 0
Share VATSIM

Download

Looking for another format? Having issues loading an existing format? Contact us
Advertisement - Login to hide

Notes

Generated

Route

CYEG OVOGU PR CYPR

ID Type Via Altitude Latitude Longitude Leg Dist Tot Dist Heading (true) Name
O CYEG APT - 0 ft / 0 m 53.30966˚ -113.59611˚ - 0 nm - -
OVOGU FIX - 0 ft / 0 m 54.12712˚ -122.46271˚ 318 nm 318 nm 282° / 275° -
PR NDB - 0 ft / 0 m 54.26333˚ -130.42394˚ 279 nm 598 nm 275° / 268° PRINCE RUPERT NDB
O CYPR APT - 0 ft / 0 m 54.29334˚ -130.45165˚ 2 nm 600 nm 332° / 332° -

Altitude Profile

Advertisement - Login to hide

Weather


0- 5 10 15 20 25 30 35+ Temperature / ° C

Clouds and Precipitation
Forecast for 2017-12-13 00:00 UTC. Updated 20 minutes ago

Ground ~20,000 ft ~40,000 ft Winds

CYEG

Details ICAO CYEG (YEG)
Name Edmonton Intl
Region Canada
Timezone America/Edmonton (UTC-7.0)
Stats Elevation 2,373 ft / 723 m (AMSL)
Location 53.309882° -113.580131°
Runways 2
Magnetic Variation 14.346° E

METAR

CYEG 122300Z 30015G20KT 15SM FEW200 05/M02 A3005 RMK CI1 CI TR SLP210

Decode

TAF

TAF CYEG 122038Z 1221/1318 30022G32KT P6SM BKN210 TEMPO 1221/1223 30015G25KT BECMG 1223/1301 30015G25KT SKC FM130200 30012G22KT P6SM SKC FM130700 30012G22KT P6SM BKN200 FM131500 30015G25KT P6SM SKC RMK NXT FCST BY 130000Z

Decode

Departure Runways

ID Width Length Bearing (true) Bearing (mag) Surface Threshold Offset Overrun Length
02 200 ft / 61 m 11,010 ft / 3,356 m 35.39° 21.04° Asphalt 0 ft / 0 m 0 ft / 0 m
12 200 ft / 61 m 10,210 ft / 3,112 m 135.18° 120.83° Asphalt 0 ft / 0 m 0 ft / 0 m
20 200 ft / 61 m 11,010 ft / 3,356 m 215.41° 201.06° Asphalt 0 ft / 0 m 0 ft / 0 m
30 200 ft / 61 m 10,210 ft / 3,112 m 315.21° 300.86° Asphalt 0 ft / 0 m 0 ft / 0 m

CYPR

Details ICAO CYPR (YPR)
Name Prince Rupert
Region Canada
Timezone America/Vancouver (UTC-8.0)
Stats Elevation 116 ft / 35 m (AMSL)
Location 54.286114° -130.444717°
Runways 1
Magnetic Variation 18.259° E

METAR

CYPR 122300Z AUTO 12009KT 4SM -RA BR OVC031 08/07 A3030 RMK SLP262

Decode

TAF

TAF CYPR 121838Z 1219/1307 14012G22KT 6SM -RA BR SCT012 BKN025 OVC040 TEMPO 1219/1307 2SM -RA BR BKN012 OVC025 RMK FCST BASED ON AUTO OBS. NXT FCST BY 130100Z

Decode

Destination Runways

ID Width Length Bearing (true) Bearing (mag) Surface Threshold Offset Overrun Length
13 200 ft / 61 m 6,043 ft / 1,842 m 150.73° 132.47° Asphalt 0 ft / 0 m 0 ft / 0 m
31 200 ft / 61 m 6,043 ft / 1,842 m 330.74° 312.48° Asphalt 0 ft / 0 m 0 ft / 0 m

Approach Navaids

Runway Type Ident Frequency Range Bearing (true) Bearing (mag) Slope Elevation
13 Localiser IPR 109.70 MHz 18 nm / 33 km 152.00° 133.74° - 91 ft / 28 m (AMSL)
13 Glidescope IPR 109.70 MHz 10 nm / 19 km 152.00° 133.74° 3.00° 91 ft / 28 m (AMSL)

Popular Alternatives